METAR AND TAF INFORMATION
METAR FOR EDFM
ADDS - METARS form results

(1946 UTC 20 February 2020)
Data provider http://aviationweather.gov/metar/data/
 
METAR text: EDFM 201920Z 19006KT 9999 BKN046 10/02 Q1017
Conditions at: EDFM (MANNHEIM , DE) observed 1920 UTC 20 February 2020
Temperature: 10.0°C (50°F)
Dewpoint: 2.0°C (36°F) [RH = 57%]
Pressure (altimeter): 30.03 inches Hg (1017.0 mb)
Winds: from the S (190 degrees) at 7 MPH (6 knots; 3.1 m/s)
Visibility: 6 or more miles (10+ km)
Ceiling: 4600 feet AGL
Clouds: broken clouds at 4600 feet AGL
Weather: no significant weather observed at this time

METAR text: EDFM 201850Z 20007KT 170V230 9999 BKN046 10/02 Q1017
Conditions at: EDFM (MANNHEIM , DE) observed 1850 UTC 20 February 2020
Temperature: 10.0°C (50°F)
Dewpoint: 2.0°C (36°F) [RH = 57%]
Pressure (altimeter): 30.03 inches Hg (1017.0 mb)
Winds: from the SSW (200 degrees) at 8 MPH (7 knots; 3.6 m/s)
Visibility: 6 or more miles (10+ km)
Ceiling: 4600 feet AGL
Clouds: broken clouds at 4600 feet AGL
Weather: no significant weather observed at this time

Forecast for: EDFM (MANNHEIM , DE)
Text: TAF EDFM 201700Z 2018/2021 22015G25KT 9999 SCT020 BKN040
Forecast period: 1800 to 2100 UTC 20 February 2020
Forecast type: FROM: standard forecast or significant change
Winds: from the SW (220 degrees) at 17 MPH (15 knots; 7.7 m/s)
gusting to 29 MPH (25 knots; 12.9 m/s)
Visibility: 6 or more miles 10+ km)
Ceiling: 4000 feet AGL
Clouds: scattered clouds at 2000 feet AGL
broken clouds at 4000 feet AGL
Weather: no significant weather forecast for this period

 AIRPORT MAP

 RUNWAY INFORMATION
Runway 09 Runway length 3497 ft Runway width 82 ft
Runway elevation 309 ft Runway displaced threshold 19 ft Runway heading 93
Runway 27 Runway length 3497 ft Runway width 82 ft
Runway elevation 306 ft Runway displaced threshold 174 ft Runway heading 273
Runway 09L Runway length 2297 ft Runway width 98 ft
Runway elevation 0 ft Runway displaced threshold 246 ft Runway heading 92
Runway 27R Runway length 2297 ft Runway width 98 ft
Runway elevation 0 ft Runway displaced threshold 82 ft Runway heading 272

 AIRPORT FREQUENCIES
Type APP Name COLEMAN AP Frequency 130.5 MHZ
Type ATIS Name ATIS Frequency 136.55 MHZ
Type CNTR Name LANGEN RAD Frequency 127.5 MHZ
Type INFO Name INFO Frequency 118.4 MHZ
Type TWR Name TWR Frequency 118.4 MHZ
Type TWR Name COLEMAN TW Frequency 122.1 MHZ

 AIRPORT NEAR NAVIGATION AIDS
Type DME Name Mannheim Frequency 113550 KHZ



Powered by Virtual Airlines Manager [v2.6.2]